Time;durP1;ratioP1;P1;durP2;ratioP2;P2;SDS_P1;SDS_P2;PMS_P1;PMS_P2;Temp;Humidity;BMP_temperature;BMP_pressure;BME280_temperature;BME280_humidity;BME280_pressure;Samples;Min_cycle;Max_cycle;Signal;HPM_P1;HPM_P2
2022/09/25 00:02:21;;;;;;;20.60;9.60;;;;;;;6.80;81.56;100049.51;105535;1277;22591;-65
2022/09/25 00:04:53;;;;;;;18.90;9.00;;;;;;;6.77;81.51;100048.83;105409;1277;24916;-65
2022/09/25 00:07:25;;;;;;;20.50;9.50;;;;;;;6.76;81.38;100049.36;105525;1277;22719;-64
2022/09/25 00:09:56;;;;;;;21.30;8.20;;;;;;;6.74;81.36;100049.77;105391;1277;22602;-66
2022/09/25 00:12:28;;;;;;;23.10;9.10;;;;;;;6.71;81.38;100048.45;105523;1276;23063;-66
2022/09/25 00:14:59;;;;;;;19.40;8.20;;;;;;;6.70;81.29;100051.59;105458;1277;22557;-65
2022/09/25 00:17:32;;;;;;;21.00;7.90;;;;;;;6.67;81.41;100051.61;105804;1277;24281;-65
2022/09/25 00:20:05;;;;;;;19.70;8.10;;;;;;;6.65;81.49;100048.39;105403;1277;25396;-65
2022/09/25 00:22:37;;;;;;;18.60;7.50;;;;;;;6.63;81.53;100054.17;105498;1277;22566;-65
2022/09/25 00:25:10;;;;;;;19.50;7.40;;;;;;;6.60;81.58;100054.74;105539;1277;22554;-65
2022/09/25 00:27:43;;;;;;;20.50;8.00;;;;;;;6.57;81.63;100052.98;105680;1277;25277;-66
2022/09/25 00:30:16;;;;;;;19.00;7.70;;;;;;;6.54;81.66;100050.54;105500;1277;25271;-65
2022/09/25 00:32:47;;;;;;;17.60;7.90;;;;;;;6.52;81.67;100042.61;105593;1277;24273;-65
2022/09/25 00:35:19;;;;;;;20.40;8.60;;;;;;;6.51;81.77;100041.61;105505;1277;25311;-65
2022/09/25 00:37:51;;;;;;;19.00;8.70;;;;;;;6.50;81.72;100041.89;105533;1277;26529;-65
2022/09/25 00:40:23;;;;;;;19.10;7.80;;;;;;;6.49;81.88;100045.84;105527;1277;22592;-65
2022/09/25 00:42:55;;;;;;;20.90;8.10;;;;;;;6.47;81.81;100045.19;105480;1277;22551;-65
2022/09/25 00:45:27;;;;;;;20.60;8.70;;;;;;;6.45;82.07;100046.63;105535;1277;22554;-65
2022/09/25 00:48:01;;;;;;;23.80;8.90;;;;;;;6.43;82.06;100038.71;105668;1277;22689;-65
2022/09/25 00:50:38;;;;;;;22.00;9.10;;;;;;;6.40;82.02;100042.71;105619;1277;22641;-67
2022/09/25 00:53:13;;;;;;;19.90;8.60;;;;;;;6.38;82.11;100044.55;105421;1277;22543;-64
2022/09/25 00:55:45;;;;;;;18.10;7.60;;;;;;;6.35;82.08;100042.96;105621;1277;25693;-65
2022/09/25 00:58:20;;;;;;;20.50;8.80;;;;;;;6.33;82.10;100043.05;105569;1277;22683;-64
2022/09/25 01:00:53;;;;;;;20.10;7.70;;;;;;;6.31;82.20;100034.41;105567;1277;22554;-65
2022/09/25 01:03:24;;;;;;;19.30;7.40;;;;;;;6.31;82.21;100035.71;105532;1277;22575;-65
2022/09/25 01:05:59;;;;;;;17.40;7.30;;;;;;;6.30;82.25;100036.64;105510;1277;23085;-65
2022/09/25 01:08:32;;;;;;;18.80;7.40;;;;;;;6.29;82.42;100034.69;105668;1277;22595;-65
2022/09/25 01:11:03;;;;;;;19.60;8.00;;;;;;;6.27;82.42;100033.52;104242;1276;1731591;-65
2022/09/25 01:13:35;;;;;;;20.40;8.80;;;;;;;6.27;82.64;100030.23;105401;1277;22543;-65
2022/09/25 01:16:13;;;;;;;18.60;7.30;;;;;;;6.26;82.71;100031.69;105563;1277;22550;-65
2022/09/25 01:18:58;;;;;;;21.50;8.40;;;;;;;6.25;83.00;100038.14;105630;1276;22542;-65
2022/09/25 01:21:37;;;;;;;17.00;7.80;;;;;;;6.24;83.26;100033.48;105519;1277;25420;-65
2022/09/25 01:24:37;;;;;;;18.20;7.50;;;;;;;6.25;83.27;100037.28;105487;1277;26805;-65
2022/09/25 01:27:31;;;;;;;16.90;8.00;;;;;;;6.24;83.37;100037.70;105600;1277;25497;-64
2022/09/25 01:30:09;;;;;;;21.50;7.40;;;;;;;6.23;83.43;100036.31;105669;1277;24355;-65
2022/09/25 01:32:51;;;;;;;18.80;6.50;;;;;;;6.23;83.53;100030.83;105585;1277;22556;-65
2022/09/25 01:35:36;;;;;;;26.70;8.90;;;;;;;6.24;83.50;100025.98;105569;1277;22586;-65
2022/09/25 01:38:16;;;;;;;16.30;6.30;;;;;;;6.22;83.65;100022.89;105454;1277;22705;-65
2022/09/25 01:40:52;;;;;;;21.70;7.70;;;;;;;6.22;83.60;100022.04;105437;1277;26241;-65
2022/09/25 01:43:33;;;;;;;17.80;7.00;;;;;;;6.21;83.55;100023.02;105403;1277;26653;-66
2022/09/25 01:46:10;;;;;;;18.80;7.80;;;;;;;6.21;83.66;100024.53;105474;1277;22548;-65
2022/09/25 01:48:44;;;;;;;18.10;7.70;;;;;;;6.20;83.76;100020.67;105459;1277;22674;-65
2022/09/25 01:51:20;;;;;;;18.30;6.30;;;;;;;6.19;83.78;100022.46;105640;1277;22563;-64
2022/09/25 01:53:55;;;;;;;18.20;7.50;;;;;;;6.18;83.91;100025.27;105542;1277;25485;-64
2022/09/25 01:56:32;;;;;;;19.70;7.20;;;;;;;6.16;84.01;100027.38;105534;1277;24247;-65
2022/09/25 01:59:09;;;;;;;20.40;7.90;;;;;;;6.16;84.13;100029.29;105534;1277;22573;-64
2022/09/25 02:01:43;;;;;;;18.70;7.10;;;;;;;6.17;84.13;100025.31;105463;1277;25281;-64
2022/09/25 02:04:20;;;;;;;21.10;6.90;;;;;;;6.17;84.24;100026.80;105389;1277;22540;-64
2022/09/25 02:06:54;;;;;;;21.10;8.30;;;;;;;6.18;84.37;100029.55;105495;1277;22547;-65
2022/09/25 02:09:32;;;;;;;17.90;6.70;;;;;;;6.19;84.53;100035.77;105501;1277;22535;-66
2022/09/25 02:12:11;;;;;;;19.80;8.00;;;;;;;6.19;84.67;100032.75;105605;1277;22573;-64
2022/09/25 02:14:49;;;;;;;17.60;7.60;;;;;;;6.20;84.74;100028.93;105453;1277;22572;-65
2022/09/25 02:20:35;;;;;;;21.10;8.40;;;;;;;6.22;85.36;100026.45;105404;1277;22576;-65
2022/09/25 02:23:17;;;;;;;19.20;9.10;;;;;;;6.21;85.12;100024.02;105521;1277;22693;-65
2022/09/25 02:25:55;;;;;;;21.50;8.10;;;;;;;6.21;85.13;100029.04;105413;1277;22728;-64
2022/09/25 02:28:27;;;;;;;21.40;8.20;;;;;;;6.17;84.89;100035.45;105413;1277;22538;-65
2022/09/25 02:31:00;;;;;;;21.30;8.40;;;;;;;6.13;84.92;100038.36;105545;1277;24296;-64
2022/09/25 02:33:32;;;;;;;20.90;8.30;;;;;;;6.11;84.81;100034.03;105399;1277;22827;-65
2022/09/25 02:36:05;;;;;;;21.60;8.40;;;;;;;6.08;84.81;100025.98;105534;1277;23194;-65
2022/09/25 02:38:37;;;;;;;18.20;7.60;;;;;;;6.06;84.78;100030.33;105546;1277;25384;-65
2022/09/25 02:41:20;;;;;;;20.20;9.10;;;;;;;6.04;84.86;100026.95;105610;1277;26600;-64
2022/09/25 02:44:00;;;;;;;19.60;7.90;;;;;;;6.01;84.94;100018.80;105469;1277;22629;-64
2022/09/25 02:46:42;;;;;;;18.60;8.20;;;;;;;5.99;84.82;100019.34;105408;1277;22563;-65
2022/09/25 02:49:21;;;;;;;23.20;7.90;;;;;;;5.98;85.03;100017.02;105438;1277;24315;-64
2022/09/25 02:52:02;;;;;;;20.60;7.50;;;;;;;5.95;84.88;100022.19;105398;1277;23347;-64
2022/09/25 02:54:42;;;;;;;22.10;8.20;;;;;;;5.93;84.99;100019.58;105417;1277;22577;-65
2022/09/25 02:57:21;;;;;;;17.40;7.00;;;;;;;5.91;84.90;100014.81;105461;1277;22633;-64
2022/09/25 02:59:58;;;;;;;17.20;7.40;;;;;;;5.90;84.91;100013.65;105429;1277;22567;-64
2022/09/25 03:02:33;;;;;;;18.80;8.10;;;;;;;5.91;85.03;100016.58;105352;1277;22716;-64
2022/09/25 03:05:06;;;;;;;22.80;8.60;;;;;;;5.93;85.26;100014.84;105514;1277;22775;-64
2022/09/25 03:10:23;;;;;;;21.20;7.90;;;;;;;5.94;85.44;100010.05;105497;1277;22492;-64
2022/09/25 03:12:54;;;;;;;21.90;8.60;;;;;;;5.93;85.52;100001.23;105485;1277;22580;-64
2022/09/25 03:15:26;;;;;;;21.60;7.80;;;;;;;5.92;85.50;100001.66;105773;1277;23010;-63
2022/09/25 03:17:57;;;;;;;20.10;8.70;;;;;;;5.91;85.56;99999.72;105523;1277;22569;-65
2022/09/25 03:20:28;;;;;;;22.40;8.90;;;;;;;5.88;85.56;99995.69;105517;1277;22561;-64
2022/09/25 03:22:59;;;;;;;29.00;10.20;;;;;;;5.86;85.51;99998.79;105481;1277;24223;-63
2022/09/25 03:25:30;;;;;;;24.70;8.30;;;;;;;5.84;85.43;99999.25;105466;1277;24342;-64
2022/09/25 03:28:02;;;;;;;22.20;8.40;;;;;;;5.81;85.35;99999.43;105843;1277;22574;-64
2022/09/25 03:30:33;;;;;;;19.20;7.80;;;;;;;5.78;85.32;99999.45;105795;1277;25863;-64
2022/09/25 03:33:04;;;;;;;20.90;8.70;;;;;;;5.75;85.25;99998.04;105553;1277;24302;-64
2022/09/25 03:35:35;;;;;;;26.40;8.60;;;;;;;5.73;85.12;99999.64;105473;1277;22551;-63
2022/09/25 03:38:09;;;;;;;21.60;8.80;;;;;;;5.70;85.31;99997.98;105473;1277;25330;-63
2022/09/25 03:40:40;;;;;;;22.40;8.90;;;;;;;5.68;85.12;100001.79;105535;1277;22552;-64
2022/09/25 03:43:11;;;;;;;18.40;6.60;;;;;;;5.65;85.11;99995.95;105491;1277;24258;-64
2022/09/25 03:45:43;;;;;;;18.90;8.00;;;;;;;5.64;85.01;100000.29;105548;1277;24289;-64
2022/09/25 03:48:16;;;;;;;21.10;8.10;;;;;;;5.60;85.03;99992.74;105411;1277;24282;-65
2022/09/25 03:50:48;;;;;;;18.50;7.10;;;;;;;5.58;85.20;99993.48;105462;1277;24833;-64
2022/09/25 03:53:20;;;;;;;18.80;7.60;;;;;;;5.55;85.11;99994.59;105581;1277;26181;-64
2022/09/25 03:55:51;;;;;;;17.50;7.20;;;;;;;5.52;85.08;99995.34;105407;1277;22773;-64
2022/09/25 03:58:22;;;;;;;17.00;7.30;;;;;;;5.49;85.26;99999.15;105415;1277;22573;-64
2022/09/25 04:00:55;;;;;;;21.50;9.40;;;;;;;5.46;85.26;99999.10;105469;1277;23986;-64
2022/09/25 04:03:28;;;;;;;17.90;7.20;;;;;;;5.45;85.42;99998.11;105525;1277;25554;-64
2022/09/25 04:06:03;;;;;;;19.10;7.70;;;;;;;5.44;85.24;99995.31;105461;1277;23269;-64
2022/09/25 04:08:36;;;;;;;20.00;7.30;;;;;;;5.42;85.09;99997.65;105403;1277;25429;-64
2022/09/25 04:11:09;;;;;;;17.30;6.80;;;;;;;5.40;85.23;99998.47;105461;1277;22664;-64
2022/09/25 04:13:42;;;;;;;21.90;9.00;;;;;;;5.38;85.33;99998.86;105468;1277;24313;-65
2022/09/25 04:16:15;;;;;;;17.60;6.60;;;;;;;5.36;85.22;99994.33;105504;1277;22664;-64
2022/09/25 04:18:47;;;;;;;21.20;8.40;;;;;;;5.35;85.09;99991.60;105525;1277;22545;-64
2022/09/25 04:21:18;;;;;;;20.40;9.10;;;;;;;5.33;85.15;99985.20;105524;1277;22543;-64
2022/09/25 04:26:36;;;;;;;22.40;9.80;;;;;;;5.31;85.48;99986.44;105383;1277;22581;-64
2022/09/25 04:29:07;;;;;;;24.30;9.40;;;;;;;5.31;85.47;99988.60;105441;1277;25393;-64
2022/09/25 04:31:38;;;;;;;23.60;10.70;;;;;;;5.30;85.69;99988.86;105445;1277;24233;-63
2022/09/25 04:34:09;;;;;;;23.30;11.00;;;;;;;5.28;85.80;99988.69;105456;1277;22621;-64
2022/09/25 04:36:40;;;;;;;27.00;10.90;;;;;;;5.27;85.91;99990.88;105403;1277;24133;-64
2022/09/25 04:39:18;;;;;;;24.00;11.20;;;;;;;5.27;85.98;99990.01;105488;1277;25461;-64
2022/09/25 04:41:50;;;;;;;23.60;9.70;;;;;;;5.27;86.15;99989.45;105543;1277;23121;-64
2022/09/25 04:44:21;;;;;;;24.00;10.10;;;;;;;5.28;85.89;99988.77;105414;1277;22615;-64
2022/09/25 04:46:52;;;;;;;22.40;9.80;;;;;;;5.26;85.93;99993.66;105496;1277;22553;-65
2022/09/25 04:49:23;;;;;;;25.10;10.40;;;;;;;5.25;86.01;99994.66;105401;1277;22566;-65
2022/09/25 04:51:58;;;;;;;24.10;11.10;;;;;;;5.25;86.02;99997.58;105425;1277;25689;-65
2022/09/25 04:54:29;;;;;;;24.10;9.50;;;;;;;5.24;86.03;99998.55;105461;1277;24477;-65
2022/09/25 04:57:01;;;;;;;24.40;11.20;;;;;;;5.23;86.09;99994.71;105465;1277;25536;-65
2022/09/25 04:59:32;;;;;;;31.10;10.90;;;;;;;5.23;85.99;99992.28;105432;1277;24040;-65
2022/09/25 05:02:03;;;;;;;24.00;10.10;;;;;;;5.23;86.25;99996.55;105496;1277;24272;-64
2022/09/25 05:04:34;;;;;;;21.90;9.30;;;;;;;5.23;86.39;99995.42;105467;1277;24442;-64
2022/09/25 05:07:05;;;;;;;23.40;9.80;;;;;;;5.24;86.37;99996.04;105406;1277;22564;-65
2022/09/25 05:09:37;;;;;;;22.90;10.20;;;;;;;5.23;86.21;99995.83;105513;1277;25452;-65
2022/09/25 05:12:08;;;;;;;24.90;10.80;;;;;;;5.21;86.23;99988.06;105462;1277;22580;-64
2022/09/25 05:14:41;;;;;;;22.90;11.00;;;;;;;5.20;86.22;99993.73;105497;1277;25480;-64
2022/09/25 05:17:12;;;;;;;25.50;10.20;;;;;;;5.18;86.19;99986.91;105502;1277;22531;-64
2022/09/25 05:19:44;;;;;;;23.70;10.60;;;;;;;5.16;86.19;99987.36;105424;1277;22560;-64
2022/09/25 05:22:15;;;;;;;25.00;10.10;;;;;;;5.15;86.18;99990.18;105444;1277;24408;-64
2022/09/25 05:24:46;;;;;;;22.60;9.60;;;;;;;5.14;86.42;99993.21;105454;1277;22579;-64
2022/09/25 05:27:17;;;;;;;24.80;10.40;;;;;;;5.14;86.47;99992.27;105497;1276;23336;-64
2022/09/25 05:29:49;;;;;;;21.30;9.70;;;;;;;5.14;86.60;99991.48;105412;1277;22624;-64
2022/09/25 05:32:21;;;;;;;21.50;8.70;;;;;;;5.14;86.61;99992.90;105436;1277;22557;-64
2022/09/25 05:34:52;;;;;;;21.10;9.10;;;;;;;5.15;86.85;99989.29;105401;1277;23611;-64
2022/09/25 05:37:24;;;;;;;22.00;9.70;;;;;;;5.18;87.04;99989.99;105401;1277;22790;-64
2022/09/25 05:39:56;;;;;;;22.40;9.90;;;;;;;5.20;87.23;99991.18;105955;1277;24082;-65
2022/09/25 05:42:29;;;;;;;23.20;9.90;;;;;;;5.24;87.33;99992.16;106015;1277;24769;-64
2022/09/25 05:45:01;;;;;;;23.70;10.80;;;;;;;5.29;87.68;99994.98;105535;1277;25305;-65
2022/09/25 05:47:33;;;;;;;22.70;10.20;;;;;;;5.35;87.89;99999.35;105395;1277;24934;-65
2022/09/25 05:50:05;;;;;;;25.10;12.30;;;;;;;5.41;88.47;99998.20;105392;1277;23785;-65
2022/09/25 05:52:36;;;;;;;26.80;12.80;;;;;;;5.48;89.09;99998.17;105414;1277;22561;-66
2022/09/25 05:55:09;;;;;;;25.10;13.00;;;;;;;5.55;89.42;100005.18;105374;1277;24450;-65
2022/09/25 05:57:40;;;;;;;28.10;13.70;;;;;;;5.63;89.65;100006.81;105468;1277;22573;-64
2022/09/25 06:00:14;;;;;;;29.90;14.30;;;;;;;5.71;89.72;100009.44;105351;1276;25448;-65
2022/09/25 06:02:46;;;;;;;30.80;15.20;;;;;;;5.78;89.78;100003.63;105525;1277;22608;-64
2022/09/25 06:05:17;;;;;;;28.60;13.80;;;;;;;5.85;89.88;100000.46;105437;1276;23022;-64
2022/09/25 06:07:54;;;;;;;33.60;14.90;;;;;;;5.93;90.03;100001.85;105341;1277;26154;-64
2022/09/25 06:10:26;;;;;;;36.60;17.50;;;;;;;6.02;90.45;100001.65;105446;1277;23075;-64
2022/09/25 06:13:00;;;;;;;31.50;16.50;;;;;;;6.11;90.68;100004.00;105490;1277;26686;-64
2022/09/25 06:15:36;;;;;;;33.20;17.40;;;;;;;6.20;90.82;99998.41;105590;1277;25254;-64
2022/09/25 06:18:09;;;;;;;34.60;17.50;;;;;;;6.29;91.20;99998.86;105637;1277;24250;-65
2022/09/25 06:20:40;;;;;;;31.10;16.80;;;;;;;6.37;91.02;99997.11;105525;1277;22550;-64
2022/09/25 06:23:12;;;;;;;35.00;18.30;;;;;;;6.46;91.48;99995.07;105425;1277;22701;-63
2022/09/25 06:25:45;;;;;;;38.40;18.90;;;;;;;6.54;91.55;99991.19;105432;1277;22597;-65
2022/09/25 06:28:16;;;;;;;39.00;20.20;;;;;;;6.64;91.85;99995.64;105551;1277;25448;-64
2022/09/25 06:30:49;;;;;;;32.90;17.90;;;;;;;6.72;92.24;99992.19;105430;1277;22675;-64
2022/09/25 06:33:20;;;;;;;33.30;17.60;;;;;;;6.82;92.26;99990.14;105430;1277;22718;-64
2022/09/25 06:35:51;;;;;;;34.80;18.10;;;;;;;6.91;92.09;99990.33;105326;1277;25197;-66
2022/09/25 06:38:24;;;;;;;34.70;19.00;;;;;;;7.00;92.53;99986.14;105362;1277;22723;-65
2022/09/25 06:40:56;;;;;;;33.80;18.00;;;;;;;7.08;92.58;99989.33;105281;1277;22629;-65
2022/09/25 06:43:27;;;;;;;34.00;18.10;;;;;;;7.16;92.64;99991.77;105214;1277;24379;-66
2022/09/25 06:46:02;;;;;;;35.80;19.40;;;;;;;7.26;93.03;99992.20;105384;1277;25395;-65
2022/09/25 06:48:33;;;;;;;34.80;18.80;;;;;;;7.34;93.07;99993.44;105298;1277;22867;-64
2022/09/25 06:51:07;;;;;;;33.10;18.30;;;;;;;7.43;93.16;99993.96;106553;1276;24252;-64
2022/09/25 06:53:38;;;;;;;40.80;19.30;;;;;;;7.49;92.94;99989.23;105483;1277;24302;-64
2022/09/25 06:56:11;;;;;;;38.40;20.30;;;;;;;7.56;93.07;99986.95;105324;1277;22710;-65
2022/09/25 06:58:42;;;;;;;34.70;18.50;;;;;;;7.64;93.36;99989.84;105502;1277;23409;-64
2022/09/25 07:01:13;;;;;;;38.00;20.30;;;;;;;7.72;93.34;99986.59;105568;1277;23233;-65
2022/09/25 07:03:44;;;;;;;42.00;20.20;;;;;;;7.79;93.07;99985.91;105640;1276;22576;-65
2022/09/25 07:06:20;;;;;;;43.10;22.70;;;;;;;7.86;93.20;99991.53;105730;1277;26537;-65
2022/09/25 07:08:52;;;;;;;44.70;23.60;;;;;;;7.93;93.41;99992.54;105681;1277;25615;-65
2022/09/25 07:11:28;;;;;;;41.30;21.20;;;;;;;8.01;93.51;99993.14;105775;1277;22604;-65
2022/09/25 07:13:59;;;;;;;39.10;20.00;;;;;;;8.07;93.30;99996.73;105694;1277;22561;-65
2022/09/25 07:16:33;;;;;;;45.70;22.50;;;;;;;8.14;93.60;99993.56;105568;1277;22563;-65
2022/09/25 07:19:04;;;;;;;41.10;22.40;;;;;;;8.23;93.90;99990.10;105474;1277;23098;-64
2022/09/25 07:21:39;;;;;;;42.30;23.10;;;;;;;8.32;94.14;99987.80;105735;1277;22633;-65
2022/09/25 07:24:10;;;;;;;42.60;22.60;;;;;;;8.41;94.24;99989.68;105746;1277;25517;-65
2022/09/25 07:26:42;;;;;;;45.40;21.70;;;;;;;8.50;94.22;99990.67;105577;1277;22620;-65
2022/09/25 07:29:16;;;;;;;40.20;21.50;;;;;;;8.59;94.23;99990.78;105416;1277;24133;-65
2022/09/25 07:31:47;;;;;;;39.90;20.20;;;;;;;8.70;94.77;99992.86;105347;1277;25361;-65
2022/09/25 07:34:20;;;;;;;41.70;21.20;;;;;;;8.83;95.13;99987.42;105425;1277;23097;-64
2022/09/25 07:36:54;;;;;;;41.70;22.50;;;;;;;8.96;94.97;99984.39;105752;1276;22578;-65
2022/09/25 07:39:25;;;;;;;45.00;21.60;;;;;;;9.06;94.87;99985.36;105774;1277;22632;-65
2022/09/25 07:42:00;;;;;;;35.00;19.80;;;;;;;9.16;95.01;99985.06;105990;1276;25459;-66
2022/09/25 07:44:32;;;;;;;36.20;20.50;;;;;;;9.28;95.20;99985.16;105514;1277;22721;-65
2022/09/25 07:47:04;;;;;;;34.40;19.50;;;;;;;9.42;95.09;99989.38;105482;1277;24316;-66
2022/09/25 07:49:35;;;;;;;39.50;21.40;;;;;;;9.52;95.08;99990.09;105633;1277;22490;-66
2022/09/25 07:52:09;;;;;;;34.10;18.80;;;;;;;9.63;95.07;99992.84;105705;1277;24602;-66
2022/09/25 07:54:43;;;;;;;33.90;17.30;;;;;;;9.74;94.82;99987.25;105548;1277;25257;-66
2022/09/25 07:57:19;;;;;;;33.70;17.40;;;;;;;9.83;94.44;99992.13;105587;1277;22576;-65
2022/09/25 07:59:50;;;;;;;30.40;16.90;;;;;;;9.91;94.35;99989.69;105786;1277;24230;-66
2022/09/25 08:02:21;;;;;;;31.30;16.10;;;;;;;10.05;94.50;99987.96;105558;1277;26677;-65
2022/09/25 08:04:53;;;;;;;29.50;15.80;;;;;;;10.18;94.41;99991.85;105658;1276;24240;-66
2022/09/25 08:07:25;;;;;;;29.00;16.00;;;;;;;10.32;94.72;99990.24;105666;1277;22539;-66
2022/09/25 08:09:57;;;;;;;30.60;15.70;;;;;;;10.46;94.30;99985.55;105951;1277;24819;-66
2022/09/25 08:12:29;;;;;;;32.10;15.50;;;;;;;10.58;94.17;99984.96;105921;1277;22590;-66
2022/09/25 08:15:00;;;;;;;34.70;17.60;;;;;;;10.69;94.06;99985.94;105834;1277;24110;-69
2022/09/25 08:17:32;;;;;;;31.80;16.40;;;;;;;10.80;93.92;99982.89;105907;1277;24271;-66
2022/09/25 08:20:06;;;;;;;34.00;16.20;;;;;;;10.93;93.58;99975.86;105685;1277;24083;-66
2022/09/25 08:22:38;;;;;;;28.80;14.00;;;;;;;11.07;93.33;99973.10;105483;1277;24270;-65
2022/09/25 08:25:11;;;;;;;26.20;13.20;;;;;;;11.16;92.99;99973.41;105348;1277;22535;-66
2022/09/25 08:27:43;;;;;;;25.90;13.60;;;;;;;11.28;93.24;99969.80;105339;1277;24233;-66
2022/09/25 08:30:16;;;;;;;23.80;11.70;;;;;;;11.40;92.92;99965.11;105670;1277;26531;-66
2022/09/25 08:32:51;;;;;;;22.40;11.30;;;;;;;11.50;92.49;99960.60;105482;1277;24253;-66
2022/09/25 08:35:22;;;;;;;22.20;11.00;;;;;;;11.58;92.34;99958.43;105796;1276;24243;-66
2022/09/25 08:37:54;;;;;;;22.40;10.60;;;;;;;11.70;92.04;99951.31;105692;1277;22660;-67
2022/09/25 08:40:29;;;;;;;26.30;11.30;;;;;;;11.80;91.83;99958.69;105577;1277;22563;-67
2022/09/25 08:43:02;;;;;;;23.20;9.40;;;;;;;11.86;91.55;99958.34;105738;1276;24466;-67
2022/09/25 08:51:24;;;;;;;21.50;10.10;;;;;;;12.10;90.84;99948.21;105633;1277;23252;-67
2022/09/25 08:53:56;;;;;;;22.20;8.70;;;;;;;12.14;90.78;99943.83;105808;1277;22586;-68
2022/09/25 08:56:31;;;;;;;21.80;10.70;;;;;;;12.24;90.84;99938.22;105931;1277;22761;-65
2022/09/25 08:59:16;;;;;;;21.50;9.50;;;;;;;12.31;90.29;99933.58;105713;1277;25138;-67
2022/09/25 09:01:52;;;;;;;19.00;8.80;;;;;;;12.39;89.70;99932.98;105864;1277;23201;-67
2022/09/25 09:04:30;;;;;;;21.50;9.50;;;;;;;12.51;89.74;99933.61;106123;1277;22697;-67
2022/09/25 09:07:08;;;;;;;17.90;8.20;;;;;;;12.57;89.22;99933.39;105650;1277;22782;-66
2022/09/25 09:09:43;;;;;;;20.00;7.90;;;;;;;12.64;88.95;99931.19;105398;1277;22583;-67
2022/09/25 09:12:18;;;;;;;19.40;8.10;;;;;;;12.74;89.02;99930.73;105413;1276;24413;-68
2022/09/25 09:14:52;;;;;;;22.00;10.50;;;;;;;12.82;88.68;99924.83;105612;1277;25273;-67
2022/09/25 09:17:27;;;;;;;21.30;9.60;;;;;;;12.89;88.38;99923.39;105375;1277;22545;-67
2022/09/25 09:20:11;;;;;;;18.10;7.50;;;;;;;12.95;88.14;99919.68;105424;1277;25392;-67
2022/09/25 09:22:51;;;;;;;21.00;7.90;;;;;;;13.03;88.04;99913.25;105518;1277;22732;-67
2022/09/25 09:25:34;;;;;;;16.60;7.00;;;;;;;13.10;87.72;99911.01;105667;1277;24313;-66
2022/09/25 09:28:30;;;;;;;14.30;6.20;;;;;;;13.17;87.42;99914.09;105559;1277;25509;-67
2022/09/25 09:31:14;;;;;;;16.20;6.70;;;;;;;13.32;87.62;99916.89;105549;1277;22729;-68
2022/09/25 09:33:55;;;;;;;14.30;5.50;;;;;;;13.45;86.86;99915.02;105455;1277;22632;-69
2022/09/25 09:36:34;;;;;;;10.50;3.70;;;;;;;13.58;86.16;99914.59;105766;1277;25566;-67
2022/09/25 09:39:17;;;;;;;8.20;2.30;;;;;;;13.71;85.10;99913.19;105812;1277;22706;-67
2022/09/25 09:42:01;;;;;;;9.90;2.60;;;;;;;13.75;84.52;99912.11;105614;1277;22676;-67
2022/09/25 09:44:50;;;;;;;10.60;3.10;;;;;;;13.77;83.67;99907.83;105716;1277;26470;-67
2022/09/25 09:47:38;;;;;;;9.80;2.90;;;;;;;13.81;83.21;99902.59;105621;1277;22639;-68
2022/09/25 09:50:23;;;;;;;8.20;2.20;;;;;;;13.91;83.17;99903.35;105725;1277;24491;-68
2022/09/25 09:53:02;;;;;;;8.20;2.60;;;;;;;13.98;82.79;99899.11;105740;1277;22890;-67
2022/09/25 09:55:39;;;;;;;10.90;3.00;;;;;;;14.05;82.98;99898.20;105877;1277;22788;-68
2022/09/25 09:58:19;;;;;;;10.10;2.70;;;;;;;14.13;82.72;99895.37;105937;1277;22560;-67
2022/09/25 10:00:50;;;;;;;8.30;2.70;;;;;;;14.23;82.51;99888.33;105731;1277;26537;-68
2022/09/25 10:03:26;;;;;;;11.10;3.00;;;;;;;14.29;81.86;99887.17;105742;1277;24268;-67
2022/09/25 10:06:01;;;;;;;11.40;2.80;;;;;;;14.34;81.31;99886.03;105914;1277;22683;-67
2022/09/25 10:08:33;;;;;;;8.30;2.00;;;;;;;14.40;81.20;99888.73;106019;1277;22637;-67
2022/09/25 10:11:14;;;;;;;8.00;2.10;;;;;;;14.48;80.78;99890.34;105724;1277;25896;-67
2022/09/25 10:13:47;;;;;;;8.20;2.50;;;;;;;14.57;80.16;99887.63;105913;1277;25460;-67
2022/09/25 10:16:22;;;;;;;7.20;2.10;;;;;;;14.64;79.92;99882.39;105900;1277;22720;-68
2022/09/25 10:19:01;;;;;;;9.30;2.40;;;;;;;14.68;79.43;99885.18;105953;1277;22591;-68
2022/09/25 10:21:38;;;;;;;9.70;2.60;;;;;;;14.73;79.37;99884.60;105878;1277;22792;-68
2022/09/25 10:24:10;;;;;;;9.90;2.40;;;;;;;14.83;78.87;99881.50;105849;1277;22645;-68
2022/09/25 10:26:42;;;;;;;9.10;2.30;;;;;;;14.96;78.98;99878.44;105907;1277;25566;-69
2022/09/25 10:32:21;;;;;;;8.20;1.80;;;;;;;15.23;77.25;99875.17;102061;1318;547017;-68
2022/09/25 10:34:54;;;;;;;6.50;1.70;;;;;;;15.36;76.59;99872.59;104991;1285;22602;-68
2022/09/25 10:37:33;;;;;;;6.10;1.70;;;;;;;15.46;75.90;99869.23;105219;1285;24380;-68
2022/09/25 10:40:08;;;;;;;7.30;1.90;;;;;;;15.49;75.41;99867.13;104920;1287;25413;-68
2022/09/25 10:42:42;;;;;;;9.60;2.10;;;;;;;15.53;75.64;99861.92;105407;1284;22591;-70
2022/09/25 10:45:29;;;;;;;5.90;1.60;;;;;;;15.63;75.12;99860.92;101447;1282;5395429;-69
2022/09/25 10:51:09;;;;;;;7.20;1.90;;;;;;;15.74;74.50;99852.86;105723;1282;25266;-69
2022/09/25 10:53:41;;;;;;;6.00;1.50;;;;;;;15.76;74.65;99852.29;105655;1282;24154;-69
2022/09/25 10:56:16;;;;;;;9.60;1.60;;;;;;;15.78;73.94;99849.09;105773;1281;22675;-69
2022/09/25 10:58:50;;;;;;;7.20;2.00;;;;;;;15.84;74.28;99846.84;105553;1281;22722;-68
2022/09/25 11:01:30;;;;;;;5.90;1.70;;;;;;;15.93;73.92;99848.04;105645;1282;24243;-68
2022/09/25 11:04:12;;;;;;;8.10;1.90;;;;;;;15.96;73.13;99846.02;105504;1282;22489;-69
2022/09/25 11:06:47;;;;;;;8.50;2.00;;;;;;;16.06;72.37;99843.05;105540;1281;22539;-70
2022/09/25 11:09:22;;;;;;;8.00;1.80;;;;;;;16.13;72.39;99842.02;108159;1281;22556;-69
2022/09/25 11:12:06;;;;;;;6.90;1.40;;;;;;;16.17;71.49;99841.52;106064;1282;24077;-69
2022/09/25 11:14:39;;;;;;;5.60;1.40;;;;;;;16.24;71.43;99836.98;105693;1282;22773;-69
2022/09/25 11:17:32;;;;;;;4.30;1.40;;;;;;;16.33;71.61;99836.89;105682;1282;24321;-69
2022/09/25 11:20:28;;;;;;;6.20;1.60;;;;;;;16.38;70.96;99834.38;106292;1282;22633;-69
2022/09/25 11:23:22;;;;;;;6.00;1.60;;;;;;;16.41;69.79;99835.22;106108;1281;25612;-69
2022/09/25 11:26:05;;;;;;;7.60;1.60;;;;;;;16.49;69.71;99837.91;106225;1282;25492;-69
2022/09/25 11:28:46;;;;;;;5.10;1.40;;;;;;;16.53;69.70;99836.63;106418;1277;22547;-70
2022/09/25 11:31:27;;;;;;;8.20;1.80;;;;;;;16.61;69.85;99838.60;106415;1277;24195;-69
2022/09/25 11:34:07;;;;;;;6.80;1.70;;;;;;;16.68;68.42;99840.46;106525;1277;25874;-70
2022/09/25 11:36:43;;;;;;;5.70;1.40;;;;;;;16.72;67.86;99835.09;106371;1278;25306;-69
2022/09/25 11:42:18;;;;;;;6.50;1.70;;;;;;;16.72;67.90;99832.78;106276;1277;22576;-70
2022/09/25 11:44:57;;;;;;;5.10;1.60;;;;;;;16.78;67.82;99830.87;106328;1277;22550;-69
2022/09/25 11:47:35;;;;;;;6.90;1.80;;;;;;;16.79;67.23;99824.39;106512;1276;25379;-69
2022/09/25 11:50:15;;;;;;;4.20;1.30;;;;;;;16.80;67.08;99823.09;106333;1278;22680;-69
2022/09/25 11:52:56;;;;;;;6.00;1.50;;;;;;;16.89;66.61;99822.50;106494;1277;22541;-69
2022/09/25 11:55:48;;;;;;;4.40;1.30;;;;;;;16.96;66.50;99817.76;106323;1276;22544;-69
2022/09/25 11:58:35;;;;;;;5.70;1.40;;;;;;;17.00;66.15;99812.67;106458;1278;25608;-69
2022/09/25 12:01:19;;;;;;;5.10;1.30;;;;;;;16.98;65.66;99800.80;106369;1278;24930;-69
2022/09/25 12:04:11;;;;;;;5.10;1.40;;;;;;;16.99;65.52;99800.55;106467;1277;22614;-69
2022/09/25 12:07:05;;;;;;;4.90;1.20;;;;;;;17.04;65.35;99797.55;106346;1277;22564;-69
2022/09/25 12:09:54;;;;;;;4.80;1.00;;;;;;;17.08;64.76;99791.23;106382;1278;22473;-69
2022/09/25 12:12:34;;;;;;;7.10;1.30;;;;;;;17.13;64.34;99797.36;106401;1277;22624;-70
2022/09/25 12:15:16;;;;;;;4.80;1.10;;;;;;;17.15;63.01;99794.58;106322;1277;22750;-69
2022/09/25 12:17:56;;;;;;;6.80;1.40;;;;;;;17.14;63.31;99790.84;106343;1277;22564;-69
2022/09/25 12:20:34;;;;;;;5.90;1.20;;;;;;;17.18;62.42;99792.56;106267;1277;22508;-69